sensor_id;sensor_type;location;lat;lon;timestamp;P1;durP1;ratioP1;P2;durP2;ratioP2
10246;SDS011;5168;47.854;7.944;2023-08-07T00:01:53;2.43;;;2.23;;
10246;SDS011;5168;47.854;7.944;2023-08-07T00:04:19;2.40;;;2.20;;
10246;SDS011;5168;47.854;7.944;2023-08-07T00:06:44;2.43;;;2.03;;
10246;SDS011;5168;47.854;7.944;2023-08-07T00:09:10;2.73;;;2.00;;
10246;SDS011;5168;47.854;7.944;2023-08-07T00:11:36;2.43;;;2.20;;
10246;SDS011;5168;47.854;7.944;2023-08-07T00:14:02;3.27;;;2.27;;
10246;SDS011;5168;47.854;7.944;2023-08-07T00:16:27;2.20;;;2.00;;
10246;SDS011;5168;47.854;7.944;2023-08-07T00:18:53;3.87;;;2.40;;
10246;SDS011;5168;47.854;7.944;2023-08-07T00:21:21;4.77;;;2.40;;
10246;SDS011;5168;47.854;7.944;2023-08-07T00:23:47;3.00;;;2.33;;
10246;SDS011;5168;47.854;7.944;2023-08-07T00:26:14;2.67;;;2.40;;
10246;SDS011;5168;47.854;7.944;2023-08-07T00:28:40;2.50;;;2.30;;
10246;SDS011;5168;47.854;7.944;2023-08-07T00:31:06;5.23;;;2.67;;
10246;SDS011;5168;47.854;7.944;2023-08-07T00:33:32;2.57;;;2.37;;
10246;SDS011;5168;47.854;7.944;2023-08-07T00:35:57;2.57;;;2.37;;
10246;SDS011;5168;47.854;7.944;2023-08-07T00:38:23;3.97;;;2.50;;
10246;SDS011;5168;47.854;7.944;2023-08-07T00:40:49;4.00;;;2.43;;
10246;SDS011;5168;47.854;7.944;2023-08-07T00:43:15;3.07;;;2.77;;
10246;SDS011;5168;47.854;7.944;2023-08-07T00:45:41;3.97;;;2.23;;
10246;SDS011;5168;47.854;7.944;2023-08-07T00:48:08;2.30;;;2.10;;
10246;SDS011;5168;47.854;7.944;2023-08-07T00:50:34;2.57;;;2.37;;
10246;SDS011;5168;47.854;7.944;2023-08-07T00:53:01;5.03;;;2.40;;
10246;SDS011;5168;47.854;7.944;2023-08-07T00:55:26;2.87;;;2.20;;
10246;SDS011;5168;47.854;7.944;2023-08-07T00:57:52;4.20;;;2.30;;
10246;SDS011;5168;47.854;7.944;2023-08-07T01:00:18;4.40;;;2.30;;
10246;SDS011;5168;47.854;7.944;2023-08-07T01:02:45;3.00;;;2.70;;
10246;SDS011;5168;47.854;7.944;2023-08-07T01:05:13;5.63;;;2.70;;
10246;SDS011;5168;47.854;7.944;2023-08-07T01:07:39;3.57;;;2.60;;
10246;SDS011;5168;47.854;7.944;2023-08-07T01:10:05;3.17;;;2.30;;
10246;SDS011;5168;47.854;7.944;2023-08-07T01:12:33;2.50;;;2.30;;
10246;SDS011;5168;47.854;7.944;2023-08-07T01:15:14;2.20;;;2.00;;
10246;SDS011;5168;47.854;7.944;2023-08-07T01:17:44;3.40;;;2.77;;
10246;SDS011;5168;47.854;7.944;2023-08-07T01:20:11;3.23;;;2.30;;
10246;SDS011;5168;47.854;7.944;2023-08-07T01:22:37;2.80;;;2.60;;
10246;SDS011;5168;47.854;7.944;2023-08-07T01:25:03;2.23;;;2.10;;
10246;SDS011;5168;47.854;7.944;2023-08-07T01:27:35;2.93;;;2.60;;
10246;SDS011;5168;47.854;7.944;2023-08-07T01:30:13;4.50;;;2.47;;
10246;SDS011;5168;47.854;7.944;2023-08-07T01:32:54;4.80;;;2.80;;
10246;SDS011;5168;47.854;7.944;2023-08-07T01:35:25;2.97;;;2.63;;
10246;SDS011;5168;47.854;7.944;2023-08-07T01:37:54;3.13;;;2.50;;
10246;SDS011;5168;47.854;7.944;2023-08-07T01:40:22;3.90;;;2.90;;
10246;SDS011;5168;47.854;7.944;2023-08-07T01:42:48;7.00;;;2.73;;
10246;SDS011;5168;47.854;7.944;2023-08-07T01:45:14;2.87;;;2.47;;
10246;SDS011;5168;47.854;7.944;2023-08-07T01:47:40;2.80;;;2.60;;
10246;SDS011;5168;47.854;7.944;2023-08-07T01:50:06;3.70;;;2.63;;
10246;SDS011;5168;47.854;7.944;2023-08-07T01:52:32;2.67;;;2.20;;
10246;SDS011;5168;47.854;7.944;2023-08-07T01:54:58;4.07;;;2.50;;
10246;SDS011;5168;47.854;7.944;2023-08-07T01:57:23;2.80;;;2.40;;
10246;SDS011;5168;47.854;7.944;2023-08-07T01:59:49;3.03;;;2.73;;
10246;SDS011;5168;47.854;7.944;2023-08-07T02:02:14;5.27;;;2.87;;
10246;SDS011;5168;47.854;7.944;2023-08-07T02:04:40;3.50;;;2.77;;
10246;SDS011;5168;47.854;7.944;2023-08-07T02:07:06;2.67;;;2.47;;
10246;SDS011;5168;47.854;7.944;2023-08-07T02:09:32;2.67;;;2.47;;
10246;SDS011;5168;47.854;7.944;2023-08-07T02:11:57;5.27;;;2.80;;
10246;SDS011;5168;47.854;7.944;2023-08-07T02:14:23;3.10;;;2.80;;
10246;SDS011;5168;47.854;7.944;2023-08-07T02:16:49;3.07;;;2.40;;
10246;SDS011;5168;47.854;7.944;2023-08-07T02:19:15;4.03;;;2.70;;
10246;SDS011;5168;47.854;7.944;2023-08-07T02:21:40;3.03;;;2.73;;
10246;SDS011;5168;47.854;7.944;2023-08-07T02:24:06;3.27;;;2.50;;
10246;SDS011;5168;47.854;7.944;2023-08-07T02:26:32;4.53;;;2.80;;
10246;SDS011;5168;47.854;7.944;2023-08-07T02:28:58;3.10;;;2.57;;
10246;SDS011;5168;47.854;7.944;2023-08-07T02:31:23;4.67;;;2.80;;
10246;SDS011;5168;47.854;7.944;2023-08-07T02:33:49;3.10;;;2.73;;
10246;SDS011;5168;47.854;7.944;2023-08-07T02:36:14;3.43;;;2.80;;
10246;SDS011;5168;47.854;7.944;2023-08-07T02:38:40;3.33;;;2.40;;
10246;SDS011;5168;47.854;7.944;2023-08-07T02:41:06;2.90;;;2.70;;
10246;SDS011;5168;47.854;7.944;2023-08-07T02:43:32;3.27;;;2.80;;
10246;SDS011;5168;47.854;7.944;2023-08-07T02:45:59;3.03;;;2.63;;
10246;SDS011;5168;47.854;7.944;2023-08-07T02:48:24;3.30;;;2.40;;
10246;SDS011;5168;47.854;7.944;2023-08-07T02:50:50;2.40;;;2.23;;
10246;SDS011;5168;47.854;7.944;2023-08-07T02:53:16;3.83;;;2.67;;
10246;SDS011;5168;47.854;7.944;2023-08-07T02:55:45;2.67;;;2.47;;
10246;SDS011;5168;47.854;7.944;2023-08-07T02:58:11;3.07;;;2.23;;
10246;SDS011;5168;47.854;7.944;2023-08-07T03:00:40;2.77;;;2.40;;
10246;SDS011;5168;47.854;7.944;2023-08-07T03:03:05;5.33;;;2.33;;
10246;SDS011;5168;47.854;7.944;2023-08-07T03:05:31;3.50;;;2.40;;
10246;SDS011;5168;47.854;7.944;2023-08-07T03:07:57;2.63;;;2.43;;
10246;SDS011;5168;47.854;7.944;2023-08-07T03:10:22;3.87;;;2.50;;
10246;SDS011;5168;47.854;7.944;2023-08-07T03:12:48;2.90;;;2.50;;
10246;SDS011;5168;47.854;7.944;2023-08-07T03:15:13;3.03;;;2.43;;
10246;SDS011;5168;47.854;7.944;2023-08-07T03:17:39;3.37;;;2.60;;
10246;SDS011;5168;47.854;7.944;2023-08-07T03:20:05;8.97;;;2.47;;
10246;SDS011;5168;47.854;7.944;2023-08-07T03:22:31;2.90;;;2.70;;
10246;SDS011;5168;47.854;7.944;2023-08-07T03:24:56;3.10;;;2.73;;
10246;SDS011;5168;47.854;7.944;2023-08-07T03:27:22;3.20;;;2.43;;
10246;SDS011;5168;47.854;7.944;2023-08-07T03:29:48;3.17;;;2.60;;
10246;SDS011;5168;47.854;7.944;2023-08-07T03:32:14;3.37;;;2.60;;
10246;SDS011;5168;47.854;7.944;2023-08-07T03:34:40;3.80;;;2.80;;
10246;SDS011;5168;47.854;7.944;2023-08-07T03:37:06;3.10;;;2.80;;
10246;SDS011;5168;47.854;7.944;2023-08-07T03:39:31;3.00;;;2.53;;
10246;SDS011;5168;47.854;7.944;2023-08-07T03:41:57;3.97;;;2.83;;
10246;SDS011;5168;47.854;7.944;2023-08-07T03:44:23;3.83;;;2.80;;
10246;SDS011;5168;47.854;7.944;2023-08-07T03:46:49;3.17;;;2.87;;
10246;SDS011;5168;47.854;7.944;2023-08-07T03:49:16;2.73;;;2.53;;
10246;SDS011;5168;47.854;7.944;2023-08-07T03:51:41;2.50;;;2.30;;
10246;SDS011;5168;47.854;7.944;2023-08-07T03:54:07;2.93;;;2.60;;
10246;SDS011;5168;47.854;7.944;2023-08-07T03:56:33;2.53;;;2.33;;
10246;SDS011;5168;47.854;7.944;2023-08-07T03:59:02;2.40;;;2.20;;
10246;SDS011;5168;47.854;7.944;2023-08-07T04:01:28;2.63;;;2.10;;
10246;SDS011;5168;47.854;7.944;2023-08-07T04:03:53;2.57;;;2.17;;
10246;SDS011;5168;47.854;7.944;2023-08-07T04:06:20;3.10;;;2.43;;
10246;SDS011;5168;47.854;7.944;2023-08-07T04:08:46;2.77;;;2.57;;
10246;SDS011;5168;47.854;7.944;2023-08-07T04:11:12;2.70;;;2.50;;
10246;SDS011;5168;47.854;7.944;2023-08-07T04:13:41;4.27;;;2.80;;
10246;SDS011;5168;47.854;7.944;2023-08-07T04:16:06;3.10;;;2.80;;
10246;SDS011;5168;47.854;7.944;2023-08-07T04:18:32;4.10;;;2.40;;
10246;SDS011;5168;47.854;7.944;2023-08-07T04:20:58;3.13;;;2.70;;
10246;SDS011;5168;47.854;7.944;2023-08-07T04:23:24;3.60;;;3.00;;
10246;SDS011;5168;47.854;7.944;2023-08-07T04:25:50;2.93;;;2.70;;
10246;SDS011;5168;47.854;7.944;2023-08-07T04:28:16;2.87;;;2.67;;
10246;SDS011;5168;47.854;7.944;2023-08-07T04:30:43;2.90;;;2.70;;
10246;SDS011;5168;47.854;7.944;2023-08-07T04:33:10;3.23;;;2.60;;
10246;SDS011;5168;47.854;7.944;2023-08-07T04:35:36;2.70;;;2.50;;
10246;SDS011;5168;47.854;7.944;2023-08-07T04:38:02;2.70;;;2.50;;
10246;SDS011;5168;47.854;7.944;2023-08-07T04:40:28;3.70;;;2.83;;
10246;SDS011;5168;47.854;7.944;2023-08-07T04:42:54;3.13;;;2.83;;
10246;SDS011;5168;47.854;7.944;2023-08-07T04:45:19;4.17;;;3.33;;
10246;SDS011;5168;47.854;7.944;2023-08-07T04:47:45;3.07;;;2.87;;
10246;SDS011;5168;47.854;7.944;2023-08-07T04:50:11;27.03;;;3.57;;
10246;SDS011;5168;47.854;7.944;2023-08-07T04:52:37;2.60;;;2.40;;
10246;SDS011;5168;47.854;7.944;2023-08-07T04:55:05;2.80;;;2.60;;
10246;SDS011;5168;47.854;7.944;2023-08-07T04:57:31;6.43;;;3.23;;
10246;SDS011;5168;47.854;7.944;2023-08-07T04:59:56;4.17;;;2.63;;
10246;SDS011;5168;47.854;7.944;2023-08-07T05:02:22;3.37;;;3.07;;
10246;SDS011;5168;47.854;7.944;2023-08-07T05:04:48;3.20;;;2.90;;
10246;SDS011;5168;47.854;7.944;2023-08-07T05:07:14;6.67;;;2.53;;
10246;SDS011;5168;47.854;7.944;2023-08-07T05:09:40;3.10;;;2.87;;
10246;SDS011;5168;47.854;7.944;2023-08-07T05:12:06;2.53;;;2.33;;
10246;SDS011;5168;47.854;7.944;2023-08-07T05:14:32;4.23;;;2.33;;
10246;SDS011;5168;47.854;7.944;2023-08-07T05:16:58;2.87;;;2.67;;
10246;SDS011;5168;47.854;7.944;2023-08-07T05:19:24;5.43;;;2.90;;
10246;SDS011;5168;47.854;7.944;2023-08-07T05:21:51;3.73;;;2.83;;
10246;SDS011;5168;47.854;7.944;2023-08-07T05:24:17;4.40;;;2.77;;
10246;SDS011;5168;47.854;7.944;2023-08-07T05:26:45;3.23;;;2.93;;
10246;SDS011;5168;47.854;7.944;2023-08-07T05:29:11;13.30;;;3.37;;
10246;SDS011;5168;47.854;7.944;2023-08-07T05:31:37;9.40;;;3.50;;
10246;SDS011;5168;47.854;7.944;2023-08-07T05:34:03;3.20;;;3.00;;
10246;SDS011;5168;47.854;7.944;2023-08-07T05:36:29;3.53;;;3.23;;
10246;SDS011;5168;47.854;7.944;2023-08-07T05:38:56;4.93;;;3.63;;
10246;SDS011;5168;47.854;7.944;2023-08-07T05:41:22;14.53;;;3.67;;
10246;SDS011;5168;47.854;7.944;2023-08-07T05:43:47;5.63;;;3.13;;
10246;SDS011;5168;47.854;7.944;2023-08-07T05:46:13;74.97;;;5.93;;
10246;SDS011;5168;47.854;7.944;2023-08-07T05:48:39;3.10;;;2.80;;
10246;SDS011;5168;47.854;7.944;2023-08-07T05:51:05;3.40;;;3.10;;
10246;SDS011;5168;47.854;7.944;2023-08-07T05:53:32;4.40;;;2.80;;
10246;SDS011;5168;47.854;7.944;2023-08-07T05:55:57;25.60;;;2.97;;
10246;SDS011;5168;47.854;7.944;2023-08-07T05:58:23;3.37;;;3.07;;
10246;SDS011;5168;47.854;7.944;2023-08-07T06:00:51;3.70;;;3.30;;
10246;SDS011;5168;47.854;7.944;2023-08-07T06:03:17;3.27;;;3.00;;
10246;SDS011;5168;47.854;7.944;2023-08-07T06:05:43;3.13;;;2.83;;
10246;SDS011;5168;47.854;7.944;2023-08-07T06:08:09;3.17;;;2.87;;
10246;SDS011;5168;47.854;7.944;2023-08-07T06:10:35;3.00;;;2.80;;
10246;SDS011;5168;47.854;7.944;2023-08-07T06:13:01;2.97;;;2.77;;
10246;SDS011;5168;47.854;7.944;2023-08-07T06:15:29;2.77;;;2.57;;
10246;SDS011;5168;47.854;7.944;2023-08-07T06:17:55;2.93;;;2.63;;
10246;SDS011;5168;47.854;7.944;2023-08-07T06:20:24;2.80;;;2.50;;
10246;SDS011;5168;47.854;7.944;2023-08-07T06:22:49;2.73;;;2.53;;
10246;SDS011;5168;47.854;7.944;2023-08-07T06:25:15;2.40;;;2.20;;
10246;SDS011;5168;47.854;7.944;2023-08-07T06:27:41;4.37;;;2.70;;
10246;SDS011;5168;47.854;7.944;2023-08-07T06:30:07;4.77;;;3.13;;
10246;SDS011;5168;47.854;7.944;2023-08-07T06:32:33;2.97;;;2.77;;
10246;SDS011;5168;47.854;7.944;2023-08-07T06:35:00;3.10;;;2.50;;
10246;SDS011;5168;47.854;7.944;2023-08-07T06:37:26;3.17;;;2.87;;
10246;SDS011;5168;47.854;7.944;2023-08-07T06:39:52;4.17;;;3.17;;
10246;SDS011;5168;47.854;7.944;2023-08-07T06:42:18;3.47;;;2.93;;
10246;SDS011;5168;47.854;7.944;2023-08-07T06:44:44;3.53;;;3.10;;
10246;SDS011;5168;47.854;7.944;2023-08-07T06:47:10;6.10;;;3.00;;
10246;SDS011;5168;47.854;7.944;2023-08-07T06:49:36;3.07;;;2.77;;
10246;SDS011;5168;47.854;7.944;2023-08-07T06:52:01;4.70;;;2.70;;
10246;SDS011;5168;47.854;7.944;2023-08-07T06:54:27;4.70;;;3.23;;
10246;SDS011;5168;47.854;7.944;2023-08-07T06:56:53;28.87;;;3.40;;
10246;SDS011;5168;47.854;7.944;2023-08-07T06:59:19;3.33;;;2.80;;
10246;SDS011;5168;47.854;7.944;2023-08-07T07:01:44;3.00;;;2.80;;
10246;SDS011;5168;47.854;7.944;2023-08-07T07:04:10;3.00;;;2.73;;
10246;SDS011;5168;47.854;7.944;2023-08-07T07:06:38;2.93;;;2.63;;
10246;SDS011;5168;47.854;7.944;2023-08-07T07:09:03;3.27;;;2.67;;
10246;SDS011;5168;47.854;7.944;2023-08-07T07:11:29;3.63;;;3.07;;
10246;SDS011;5168;47.854;7.944;2023-08-07T07:13:55;3.90;;;3.03;;
10246;SDS011;5168;47.854;7.944;2023-08-07T07:16:21;3.90;;;2.77;;
10246;SDS011;5168;47.854;7.944;2023-08-07T07:18:47;3.23;;;2.90;;
10246;SDS011;5168;47.854;7.944;2023-08-07T07:21:14;5.87;;;2.57;;
10246;SDS011;5168;47.854;7.944;2023-08-07T07:23:39;4.97;;;2.80;;
10246;SDS011;5168;47.854;7.944;2023-08-07T07:26:05;2.73;;;2.53;;
10246;SDS011;5168;47.854;7.944;2023-08-07T07:28:31;5.17;;;3.50;;
10246;SDS011;5168;47.854;7.944;2023-08-07T07:30:57;3.30;;;2.97;;
10246;SDS011;5168;47.854;7.944;2023-08-07T07:33:22;2.90;;;2.70;;
10246;SDS011;5168;47.854;7.944;2023-08-07T07:35:48;3.37;;;3.00;;
10246;SDS011;5168;47.854;7.944;2023-08-07T07:38:14;3.97;;;3.03;;
10246;SDS011;5168;47.854;7.944;2023-08-07T07:40:40;3.60;;;2.37;;
10246;SDS011;5168;47.854;7.944;2023-08-07T07:43:06;3.37;;;2.70;;
10246;SDS011;5168;47.854;7.944;2023-08-07T07:45:31;4.13;;;2.83;;
10246;SDS011;5168;47.854;7.944;2023-08-07T07:48:00;2.90;;;2.60;;
10246;SDS011;5168;47.854;7.944;2023-08-07T07:50:26;2.80;;;2.50;;
10246;SDS011;5168;47.854;7.944;2023-08-07T07:52:51;2.50;;;2.30;;
10246;SDS011;5168;47.854;7.944;2023-08-07T07:55:17;3.07;;;2.77;;
10246;SDS011;5168;47.854;7.944;2023-08-07T07:57:43;2.93;;;2.73;;
10246;SDS011;5168;47.854;7.944;2023-08-07T08:00:09;4.00;;;3.30;;
10246;SDS011;5168;47.854;7.944;2023-08-07T08:02:39;2.70;;;2.50;;
10246;SDS011;5168;47.854;7.944;2023-08-07T08:05:06;5.30;;;2.77;;
10246;SDS011;5168;47.854;7.944;2023-08-07T08:07:32;3.10;;;2.60;;
10246;SDS011;5168;47.854;7.944;2023-08-07T08:09:59;2.87;;;2.60;;
10246;SDS011;5168;47.854;7.944;2023-08-07T08:12:25;4.37;;;3.17;;
10246;SDS011;5168;47.854;7.944;2023-08-07T08:14:50;3.10;;;2.80;;
10246;SDS011;5168;47.854;7.944;2023-08-07T08:17:16;4.37;;;2.80;;
10246;SDS011;5168;47.854;7.944;2023-08-07T08:19:42;6.00;;;2.90;;
10246;SDS011;5168;47.854;7.944;2023-08-07T08:22:08;2.73;;;2.53;;
10246;SDS011;5168;47.854;7.944;2023-08-07T08:24:34;3.00;;;2.60;;
10246;SDS011;5168;47.854;7.944;2023-08-07T08:27:00;2.67;;;2.47;;
10246;SDS011;5168;47.854;7.944;2023-08-07T08:29:26;2.67;;;2.47;;
10246;SDS011;5168;47.854;7.944;2023-08-07T08:31:53;2.60;;;2.40;;
10246;SDS011;5168;47.854;7.944;2023-08-07T08:34:19;3.03;;;2.83;;
10246;SDS011;5168;47.854;7.944;2023-08-07T08:36:46;2.40;;;2.20;;
10246;SDS011;5168;47.854;7.944;2023-08-07T08:39:12;2.67;;;2.47;;
10246;SDS011;5168;47.854;7.944;2023-08-07T08:41:38;2.90;;;2.60;;
10246;SDS011;5168;47.854;7.944;2023-08-07T08:44:06;2.40;;;2.20;;
10246;SDS011;5168;47.854;7.944;2023-08-07T08:46:32;4.90;;;2.60;;
10246;SDS011;5168;47.854;7.944;2023-08-07T08:48:59;2.90;;;2.60;;
10246;SDS011;5168;47.854;7.944;2023-08-07T08:51:27;3.23;;;2.63;;
10246;SDS011;5168;47.854;7.944;2023-08-07T08:53:53;3.10;;;2.40;;
10246;SDS011;5168;47.854;7.944;2023-08-07T08:56:21;4.37;;;2.60;;
10246;SDS011;5168;47.854;7.944;2023-08-07T08:58:48;2.70;;;2.47;;
10246;SDS011;5168;47.854;7.944;2023-08-07T09:01:15;4.27;;;2.37;;
10246;SDS011;5168;47.854;7.944;2023-08-07T09:03:45;2.90;;;2.30;;
10246;SDS011;5168;47.854;7.944;2023-08-07T09:06:12;2.77;;;2.50;;
10246;SDS011;5168;47.854;7.944;2023-08-07T09:08:40;2.67;;;2.33;;
10246;SDS011;5168;47.854;7.944;2023-08-07T09:11:08;2.57;;;2.37;;
10246;SDS011;5168;47.854;7.944;2023-08-07T09:13:36;3.90;;;2.47;;
10246;SDS011;5168;47.854;7.944;2023-08-07T09:16:03;3.57;;;2.93;;
10246;SDS011;5168;47.854;7.944;2023-08-07T09:18:32;2.20;;;2.07;;
10246;SDS011;5168;47.854;7.944;2023-08-07T09:20:58;2.73;;;2.30;;
10246;SDS011;5168;47.854;7.944;2023-08-07T09:23:25;2.00;;;1.90;;
10246;SDS011;5168;47.854;7.944;2023-08-07T09:26:00;2.63;;;2.00;;
10246;SDS011;5168;47.854;7.944;2023-08-07T09:28:28;3.50;;;2.00;;
10246;SDS011;5168;47.854;7.944;2023-08-07T09:30:55;2.50;;;2.20;;
10246;SDS011;5168;47.854;7.944;2023-08-07T09:33:26;2.23;;;2.10;;
10246;SDS011;5168;47.854;7.944;2023-08-07T09:35:56;2.27;;;2.07;;
10246;SDS011;5168;47.854;7.944;2023-08-07T09:38:23;2.00;;;1.90;;
10246;SDS011;5168;47.854;7.944;2023-08-07T09:40:52;2.03;;;1.83;;
10246;SDS011;5168;47.854;7.944;2023-08-07T09:43:21;2.33;;;1.80;;
10246;SDS011;5168;47.854;7.944;2023-08-07T09:45:50;1.80;;;1.70;;
10246;SDS011;5168;47.854;7.944;2023-08-07T09:48:22;2.10;;;2.00;;
10246;SDS011;5168;47.854;7.944;2023-08-07T09:50:52;2.67;;;1.93;;
10246;SDS011;5168;47.854;7.944;2023-08-07T09:53:24;2.67;;;2.00;;
10246;SDS011;5168;47.854;7.944;2023-08-07T09:55:54;2.37;;;1.80;;
10246;SDS011;5168;47.854;7.944;2023-08-07T09:58:20;3.33;;;1.87;;
10246;SDS011;5168;47.854;7.944;2023-08-07T10:00:46;2.57;;;2.17;;
10246;SDS011;5168;47.854;7.944;2023-08-07T10:03:13;2.23;;;2.03;;
10246;SDS011;5168;47.854;7.944;2023-08-07T10:05:39;2.10;;;1.90;;
10246;SDS011;5168;47.854;7.944;2023-08-07T10:08:07;2.37;;;2.13;;
10246;SDS011;5168;47.854;7.944;2023-08-07T10:10:33;2.67;;;2.23;;
10246;SDS011;5168;47.854;7.944;2023-08-07T10:13:00;2.13;;;1.93;;
10246;SDS011;5168;47.854;7.944;2023-08-07T10:15:26;2.13;;;1.93;;
10246;SDS011;5168;47.854;7.944;2023-08-07T10:17:53;2.03;;;1.83;;
10246;SDS011;5168;47.854;7.944;2023-08-07T10:20:19;2.30;;;2.10;;
10246;SDS011;5168;47.854;7.944;2023-08-07T10:22:48;2.53;;;2.23;;
10246;SDS011;5168;47.854;7.944;2023-08-07T10:25:15;2.23;;;1.97;;
10246;SDS011;5168;47.854;7.944;2023-08-07T10:27:45;3.60;;;2.10;;
10246;SDS011;5168;47.854;7.944;2023-08-07T10:30:12;3.33;;;2.23;;
10246;SDS011;5168;47.854;7.944;2023-08-07T10:32:42;3.07;;;2.20;;
10246;SDS011;5168;47.854;7.944;2023-08-07T10:35:09;1.80;;;1.70;;
10246;SDS011;5168;47.854;7.944;2023-08-07T10:40:08;2.30;;;2.10;;
10246;SDS011;5168;47.854;7.944;2023-08-07T10:45:24;2.80;;;2.20;;
10246;SDS011;5168;47.854;7.944;2023-08-07T10:48:01;2.40;;;2.20;;
10246;SDS011;5168;47.854;7.944;2023-08-07T10:50:35;2.40;;;2.20;;
10246;SDS011;5168;47.854;7.944;2023-08-07T10:53:18;3.57;;;2.07;;
10246;SDS011;5168;47.854;7.944;2023-08-07T10:55:58;2.13;;;1.97;;
10246;SDS011;5168;47.854;7.944;2023-08-07T10:58:31;2.30;;;2.10;;
10246;SDS011;5168;47.854;7.944;2023-08-07T11:03:43;2.10;;;1.90;;
10246;SDS011;5168;47.854;7.944;2023-08-07T11:06:09;2.03;;;1.80;;
10246;SDS011;5168;47.854;7.944;2023-08-07T11:08:35;2.07;;;1.87;;
10246;SDS011;5168;47.854;7.944;2023-08-07T11:11:05;3.07;;;2.30;;
10246;SDS011;5168;47.854;7.944;2023-08-07T11:13:31;2.40;;;2.20;;
10246;SDS011;5168;47.854;7.944;2023-08-07T11:15:58;2.40;;;2.20;;
10246;SDS011;5168;47.854;7.944;2023-08-07T11:18:24;3.80;;;2.03;;
10246;SDS011;5168;47.854;7.944;2023-08-07T11:20:50;2.07;;;1.90;;
10246;SDS011;5168;47.854;7.944;2023-08-07T11:23:22;2.23;;;1.93;;
10246;SDS011;5168;47.854;7.944;2023-08-07T11:25:49;2.30;;;2.10;;
10246;SDS011;5168;47.854;7.944;2023-08-07T11:28:17;5.77;;;2.10;;
10246;SDS011;5168;47.854;7.944;2023-08-07T11:30:49;3.77;;;2.20;;
10246;SDS011;5168;47.854;7.944;2023-08-07T11:33:18;2.77;;;2.00;;
10246;SDS011;5168;47.854;7.944;2023-08-07T11:35:44;2.30;;;2.10;;
10246;SDS011;5168;47.854;7.944;2023-08-07T11:38:15;2.30;;;2.10;;
10246;SDS011;5168;47.854;7.944;2023-08-07T11:41:05;4.40;;;2.00;;
10246;SDS011;5168;47.854;7.944;2023-08-07T11:43:32;2.93;;;2.03;;
10246;SDS011;5168;47.854;7.944;2023-08-07T11:46:00;3.77;;;2.13;;
10246;SDS011;5168;47.854;7.944;2023-08-07T11:48:27;2.47;;;2.27;;
10246;SDS011;5168;47.854;7.944;2023-08-07T11:50:54;2.13;;;1.93;;
10246;SDS011;5168;47.854;7.944;2023-08-07T11:53:21;2.40;;;2.10;;
10246;SDS011;5168;47.854;7.944;2023-08-07T11:55:57;3.27;;;2.10;;
10246;SDS011;5168;47.854;7.944;2023-08-07T11:58:24;2.20;;;2.00;;
10246;SDS011;5168;47.854;7.944;2023-08-07T12:00:52;2.37;;;1.90;;
10246;SDS011;5168;47.854;7.944;2023-08-07T12:03:27;3.13;;;2.20;;
10246;SDS011;5168;47.854;7.944;2023-08-07T12:05:57;2.43;;;1.80;;
10246;SDS011;5168;47.854;7.944;2023-08-07T12:08:24;2.43;;;2.20;;
10246;SDS011;5168;47.854;7.944;2023-08-07T12:10:56;2.17;;;1.97;;
10246;SDS011;5168;47.854;7.944;2023-08-07T12:13:25;2.73;;;2.00;;
10246;SDS011;5168;47.854;7.944;2023-08-07T12:15:54;2.30;;;2.10;;
10246;SDS011;5168;47.854;7.944;2023-08-07T12:18:22;2.23;;;1.93;;
10246;SDS011;5168;47.854;7.944;2023-08-07T12:20:51;2.03;;;1.93;;
10246;SDS011;5168;47.854;7.944;2023-08-07T12:23:24;2.10;;;1.90;;
10246;SDS011;5168;47.854;7.944;2023-08-07T12:25:50;3.43;;;1.70;;
10246;SDS011;5168;47.854;7.944;2023-08-07T12:28:17;2.67;;;1.80;;
10246;SDS011;5168;47.854;7.944;2023-08-07T12:30:47;4.13;;;1.90;;
10246;SDS011;5168;47.854;7.944;2023-08-07T12:33:13;2.37;;;1.77;;
10246;SDS011;5168;47.854;7.944;2023-08-07T12:35:39;3.13;;;1.90;;
10246;SDS011;5168;47.854;7.944;2023-08-07T12:38:06;1.90;;;1.70;;
10246;SDS011;5168;47.854;7.944;2023-08-07T12:40:32;2.13;;;1.90;;
10246;SDS011;5168;47.854;7.944;2023-08-07T12:43:00;1.97;;;1.77;;
10246;SDS011;5168;47.854;7.944;2023-08-07T12:45:26;2.30;;;1.70;;
10246;SDS011;5168;47.854;7.944;2023-08-07T12:47:52;3.10;;;1.90;;
10246;SDS011;5168;47.854;7.944;2023-08-07T12:50:18;2.50;;;2.10;;
10246;SDS011;5168;47.854;7.944;2023-08-07T12:52:44;3.73;;;1.80;;
10246;SDS011;5168;47.854;7.944;2023-08-07T12:55:10;2.53;;;1.90;;
10246;SDS011;5168;47.854;7.944;2023-08-07T12:57:37;3.87;;;1.80;;
10246;SDS011;5168;47.854;7.944;2023-08-07T13:00:03;3.77;;;2.07;;
10246;SDS011;5168;47.854;7.944;2023-08-07T13:02:29;3.50;;;2.00;;
10246;SDS011;5168;47.854;7.944;2023-08-07T13:04:55;3.57;;;2.10;;
10246;SDS011;5168;47.854;7.944;2023-08-07T13:07:22;2.03;;;1.80;;
10246;SDS011;5168;47.854;7.944;2023-08-07T13:09:50;3.37;;;2.13;;
10246;SDS011;5168;47.854;7.944;2023-08-07T13:12:15;2.57;;;1.80;;
10246;SDS011;5168;47.854;7.944;2023-08-07T13:14:41;2.07;;;1.87;;
10246;SDS011;5168;47.854;7.944;2023-08-07T13:17:06;3.47;;;2.10;;
10246;SDS011;5168;47.854;7.944;2023-08-07T13:19:32;1.93;;;1.70;;
10246;SDS011;5168;47.854;7.944;2023-08-07T13:21:58;2.67;;;2.23;;
10246;SDS011;5168;47.854;7.944;2023-08-07T13:24:24;1.90;;;1.80;;
10246;SDS011;5168;47.854;7.944;2023-08-07T13:26:50;3.80;;;2.00;;
10246;SDS011;5168;47.854;7.944;2023-08-07T13:29:15;2.20;;;2.00;;
10246;SDS011;5168;47.854;7.944;2023-08-07T13:31:41;2.33;;;2.13;;
10246;SDS011;5168;47.854;7.944;2023-08-07T13:34:08;2.17;;;1.90;;
10246;SDS011;5168;47.854;7.944;2023-08-07T13:36:35;2.00;;;1.80;;
10246;SDS011;5168;47.854;7.944;2023-08-07T13:39:03;2.17;;;1.93;;
10246;SDS011;5168;47.854;7.944;2023-08-07T13:41:29;2.07;;;1.97;;
10246;SDS011;5168;47.854;7.944;2023-08-07T13:43:54;1.90;;;1.80;;
10246;SDS011;5168;47.854;7.944;2023-08-07T13:46:20;2.30;;;2.03;;
10246;SDS011;5168;47.854;7.944;2023-08-07T13:48:46;2.30;;;2.03;;
10246;SDS011;5168;47.854;7.944;2023-08-07T13:51:13;3.10;;;2.30;;
10246;SDS011;5168;47.854;7.944;2023-08-07T13:53:39;2.13;;;1.90;;
10246;SDS011;5168;47.854;7.944;2023-08-07T13:56:05;2.03;;;1.90;;
10246;SDS011;5168;47.854;7.944;2023-08-07T13:58:32;1.90;;;1.80;;
10246;SDS011;5168;47.854;7.944;2023-08-07T14:00:58;8.60;;;2.10;;
10246;SDS011;5168;47.854;7.944;2023-08-07T14:03:23;3.40;;;1.70;;
10246;SDS011;5168;47.854;7.944;2023-08-07T14:05:49;3.30;;;1.90;;
10246;SDS011;5168;47.854;7.944;2023-08-07T14:08:15;3.70;;;1.60;;
10246;SDS011;5168;47.854;7.944;2023-08-07T14:10:41;3.53;;;1.80;;
10246;SDS011;5168;47.854;7.944;2023-08-07T14:13:07;2.43;;;1.80;;
10246;SDS011;5168;47.854;7.944;2023-08-07T14:15:34;2.60;;;1.80;;
10246;SDS011;5168;47.854;7.944;2023-08-07T14:18:00;1.93;;;1.73;;
10246;SDS011;5168;47.854;7.944;2023-08-07T14:20:25;2.70;;;1.60;;
10246;SDS011;5168;47.854;7.944;2023-08-07T14:22:51;2.20;;;2.00;;
10246;SDS011;5168;47.854;7.944;2023-08-07T14:25:17;2.23;;;1.80;;
10246;SDS011;5168;47.854;7.944;2023-08-07T14:27:42;2.13;;;1.93;;
10246;SDS011;5168;47.854;7.944;2023-08-07T14:30:08;2.30;;;1.80;;
10246;SDS011;5168;47.854;7.944;2023-08-07T14:32:34;1.83;;;1.73;;
10246;SDS011;5168;47.854;7.944;2023-08-07T14:35:00;1.60;;;1.50;;
10246;SDS011;5168;47.854;7.944;2023-08-07T14:37:25;1.80;;;1.70;;
10246;SDS011;5168;47.854;7.944;2023-08-07T14:39:51;1.80;;;1.70;;
10246;SDS011;5168;47.854;7.944;2023-08-07T14:42:17;2.53;;;1.70;;
10246;SDS011;5168;47.854;7.944;2023-08-07T14:44:42;1.80;;;1.70;;
10246;SDS011;5168;47.854;7.944;2023-08-07T14:47:08;1.80;;;1.70;;
10246;SDS011;5168;47.854;7.944;2023-08-07T14:49:35;1.90;;;1.60;;
10246;SDS011;5168;47.854;7.944;2023-08-07T14:52:00;2.37;;;1.63;;
10246;SDS011;5168;47.854;7.944;2023-08-07T14:54:26;1.70;;;1.60;;
10246;SDS011;5168;47.854;7.944;2023-08-07T14:56:52;2.00;;;1.80;;
10246;SDS011;5168;47.854;7.944;2023-08-07T14:59:18;2.03;;;1.70;;
10246;SDS011;5168;47.854;7.944;2023-08-07T15:01:44;1.87;;;1.77;;
10246;SDS011;5168;47.854;7.944;2023-08-07T15:04:09;2.77;;;1.90;;
10246;SDS011;5168;47.854;7.944;2023-08-07T15:06:36;3.43;;;2.10;;